Aérodrome :
LOGIN :

S'inscrire | Disclaimer

   EN    FR    IT 

 










Légende :    VFR   VFR Marginal   IFR   IFR Intensif   IFR Très Intensif
Visi : 
Plafond : 
>= 8 km
>= 3000ft
5 à 8 km
1000 à 3000 ft
1500m à 5 km
500 à 1000 ft
800 à 1500m
200 à 500 ft
< 800m
< 200 ft
Symboles :   Orages  Brouillard  Fortes neiges  Fortes précipitations  Vent > 20 kt
SIGMETs :   Divers  Orages  Givrage  Turbulence  Onde Orograph.  Cendres Volcan.







- Altitude de l'aérodrome : 602 ft
- Code IATA : NVS
- Voir les cartes d'approche


LFQG - Nevers

DERNIER METAR :
  • 141300Z AUTO 21010KT CAVOK 09/06 Q1003

METARs EXPIRÉS :
  • 141230Z AUTO 21010KT 9999 FEW033 SCT054 BKN066 08/05 Q1004
  • 141200Z AUTO 22010KT 190V250 9999 -RA FEW031/// BKN037/// BKN043/// ///TCU 07/05 Q1005
  • 141130Z AUTO 24017G28KT 210V270 9999 -RA BKN039/// BKN047/// BKN056/// ///TCU 08/04 Q1006
  • 141100Z AUTO 20009KT 9999 FEW042 BKN074 BKN090 08/05 Q1006
  • 141030Z AUTO 22011KT 9999 FEW032 SCT070 08/05 Q1007

TAF N/A
Pas de NOTAMs connus pour ce terrain.
2 SIGMETs publiés pour la FIR Paris (LFFF) :
 
Turbulence forte
LFFF SIGMET 8 VALID 141300/141500 LFPW
LFFF PARIS FIR/UIR SEV TURB OBS AT 1300Z S OF N4700 AND E OF E00330 FL160/250 STNR NC=
Orages noyés dans la masse
LFFF SIGMET 7 VALID 141130/141330 LFPW
LFFF PARIS FIR/UIR EMBD TS OBS AT 1130Z NW OF LINE N4915 W00015 - N5045 E00300 TOP FL290 MOV E 30KT NC=



MET'MAP, la Météo Aéronautique d'un coup d'oeil ! - Copyright ORBIFLY Décembre 2007 - Disclaimer

ORBIFLY MET'MAP TEAM :

Programmation & Développement : Alexandra Zaïnal
Conception & Développement : Baudouin d'Aumeries
Co-Programmation & Développement : Marc-Olivier Méhu
Soutien technique & logistique : Manuel Goepfert

Contact : metmap@orbifly.com




SOURCES & CREDITS :

   NOAA